createdAt,value
2022-11-20T00:02:02.011Z,2.37
2022-11-20T00:04:28.463Z,2.37
2022-11-20T00:06:55.503Z,2.01
2022-11-20T00:09:22.407Z,2.39
2022-11-20T00:11:49.292Z,2.16
2022-11-20T00:14:15.779Z,1.95
2022-11-20T00:16:42.179Z,2.24
2022-11-20T00:19:08.739Z,2.15
2022-11-20T00:21:35.201Z,2.34
2022-11-20T00:24:01.629Z,2.22
2022-11-20T00:26:29.457Z,2.15
2022-11-20T00:28:58.445Z,2.18
2022-11-20T00:31:25.879Z,2.05
2022-11-20T00:33:53.002Z,2.05
2022-11-20T00:36:22.120Z,2.33
2022-11-20T00:38:52.398Z,2.21
2022-11-20T00:41:19.164Z,2.31
2022-11-20T00:43:45.583Z,2.42
2022-11-20T00:46:16.015Z,2.25
2022-11-20T00:48:44.310Z,2.36
2022-11-20T00:51:12.685Z,2.30
2022-11-20T00:53:39.324Z,2.28
2022-11-20T00:56:08.664Z,2.39
2022-11-20T00:58:37.883Z,2.35
2022-11-20T01:01:09.192Z,2.42
2022-11-20T01:03:37.574Z,2.25
2022-11-20T01:06:06.793Z,2.48
2022-11-20T01:08:34.857Z,2.40
2022-11-20T01:11:03.090Z,2.41
2022-11-20T01:13:39.656Z,2.30
2022-11-20T01:16:15.132Z,2.56
2022-11-20T01:18:44.615Z,2.59
2022-11-20T01:21:13.866Z,2.39
2022-11-20T01:23:41.763Z,2.33
2022-11-20T01:26:11.905Z,2.42
2022-11-20T01:28:41.168Z,2.48
2022-11-20T01:31:18.724Z,2.63
2022-11-20T01:33:47.080Z,2.52
2022-11-20T01:36:15.407Z,2.67
2022-11-20T01:38:42.235Z,2.67
2022-11-20T01:41:10.169Z,2.68
2022-11-20T01:43:37.346Z,2.34
2022-11-20T01:46:18.526Z,2.64
2022-11-20T01:48:58.462Z,2.36
2022-11-20T01:51:54.190Z,2.75
2022-11-20T01:54:36.190Z,2.53
2022-11-20T01:57:05.147Z,2.57
2022-11-20T01:59:31.960Z,2.44
2022-11-20T02:01:59.064Z,2.59
2022-11-20T02:04:25.728Z,2.59
2022-11-20T02:07:03.405Z,2.41
2022-11-20T02:09:29.910Z,2.42
2022-11-20T02:11:56.801Z,2.72
2022-11-20T02:14:24.170Z,2.57
2022-11-20T02:16:51.169Z,2.67
2022-11-20T02:19:31.241Z,2.81
2022-11-20T02:22:13.879Z,2.76
2022-11-20T02:24:42.436Z,2.69
2022-11-20T02:27:12.712Z,2.72
2022-11-20T02:29:45.095Z,2.45
2022-11-20T02:32:27.470Z,2.62
2022-11-20T02:34:54.571Z,2.81
2022-11-20T02:37:21.897Z,2.84
2022-11-20T02:39:51.294Z,2.94
2022-11-20T02:42:18.277Z,2.81
2022-11-20T02:44:44.817Z,2.73
2022-11-20T02:47:11.351Z,2.68
2022-11-20T02:49:37.695Z,2.93
2022-11-20T02:52:04.306Z,2.99
2022-11-20T02:54:30.782Z,3.00
2022-11-20T02:56:57.136Z,2.86
2022-11-20T02:59:23.883Z,2.90
2022-11-20T03:01:50.462Z,2.99
2022-11-20T03:04:16.821Z,2.91
2022-11-20T03:06:43.439Z,2.90
2022-11-20T03:09:10.251Z,2.12
2022-11-20T03:11:36.717Z,2.72
2022-11-20T03:14:04.489Z,2.94
2022-11-20T03:16:31.875Z,3.00
2022-11-20T03:18:58.425Z,3.11
2022-11-20T03:21:25.049Z,3.02
2022-11-20T03:23:51.536Z,2.86
2022-11-20T03:26:23.055Z,3.15
2022-11-20T03:28:52.151Z,3.10
2022-11-20T03:31:21.188Z,2.90
2022-11-20T03:33:49.117Z,2.92
2022-11-20T03:36:17.856Z,3.09
2022-11-20T03:38:44.758Z,3.14
2022-11-20T03:41:14.249Z,3.16
2022-11-20T03:43:41.287Z,3.01
2022-11-20T03:46:08.886Z,2.86
2022-11-20T03:48:35.682Z,2.73
2022-11-20T03:51:16.942Z,2.99
2022-11-20T03:53:45.509Z,2.89
2022-11-20T03:56:14.170Z,2.81
2022-11-20T03:58:42.038Z,2.99
2022-11-20T04:01:11.048Z,3.16
2022-11-20T04:03:39.676Z,3.20
2022-11-20T04:06:09.475Z,3.14
2022-11-20T04:08:36.353Z,3.08
2022-11-20T04:11:19.601Z,3.19
2022-11-20T04:13:57.337Z,3.10
2022-11-20T04:16:25.596Z,3.18
2022-11-20T04:18:53.998Z,3.14
2022-11-20T04:21:20.582Z,3.17
2022-11-20T04:23:47.098Z,3.11
2022-11-20T04:26:13.782Z,2.92
2022-11-20T04:28:40.509Z,3.13
2022-11-20T04:31:10.626Z,2.97
2022-11-20T04:33:38.048Z,3.22
2022-11-20T04:36:08.126Z,3.26
2022-11-20T04:38:35.277Z,3.23
2022-11-20T04:41:03.958Z,3.22
2022-11-20T04:43:30.741Z,3.17
2022-11-20T04:45:58.653Z,3.07
2022-11-20T04:48:26.263Z,3.07
2022-11-20T04:50:53.592Z,3.01
2022-11-20T04:53:21.076Z,3.18
2022-11-20T04:55:48.086Z,3.27
2022-11-20T04:58:15.502Z,3.31
2022-11-20T05:00:42.018Z,3.09
2022-11-20T05:03:08.525Z,3.32
2022-11-20T05:05:35.510Z,3.31
2022-11-20T05:08:02.200Z,3.34
2022-11-20T05:10:28.845Z,3.42
2022-11-20T05:12:55.344Z,3.39
2022-11-20T05:15:21.826Z,3.54
2022-11-20T05:17:51.951Z,3.56
2022-11-20T05:20:19.090Z,3.46
2022-11-20T05:22:45.969Z,3.68
2022-11-20T05:25:12.579Z,3.51
2022-11-20T05:27:39.621Z,3.53
2022-11-20T05:30:07.129Z,3.80
2022-11-20T05:32:33.592Z,3.75
2022-11-20T05:34:59.950Z,3.81
2022-11-20T05:37:26.390Z,3.75
2022-11-20T05:39:52.738Z,3.94
2022-11-20T05:42:31.216Z,3.75
2022-11-20T05:44:58.994Z,3.89
2022-11-20T05:47:26.251Z,3.84
2022-11-20T05:49:52.790Z,3.88
2022-11-20T05:52:19.553Z,3.91
2022-11-20T05:54:46.023Z,4.04
2022-11-20T05:57:12.386Z,3.97
2022-11-20T05:59:38.802Z,3.87
2022-11-20T06:02:05.540Z,3.59
2022-11-20T06:04:31.950Z,3.69
2022-11-20T06:06:58.516Z,3.44
2022-11-20T06:09:25.012Z,3.74
2022-11-20T06:11:52.108Z,3.79
2022-11-20T06:14:18.543Z,3.60
2022-11-20T06:16:44.925Z,3.82
2022-11-20T06:19:11.385Z,3.51
2022-11-20T06:21:37.818Z,3.94
2022-11-20T06:24:04.400Z,3.78
2022-11-20T06:26:31.537Z,3.85
2022-11-20T06:28:58.078Z,3.83
2022-11-20T06:31:26.259Z,3.88
2022-11-20T06:33:53.526Z,3.53
2022-11-20T06:36:21.442Z,3.71
2022-11-20T06:38:49.036Z,3.70
2022-11-20T06:41:19.210Z,3.59
2022-11-20T06:43:45.815Z,3.47
2022-11-20T06:46:14.036Z,3.71
2022-11-20T06:48:41.100Z,3.64
2022-11-20T06:51:08.831Z,3.76
2022-11-20T06:53:36.150Z,3.65
2022-11-20T06:56:03.518Z,3.67
2022-11-20T06:58:32.228Z,3.60
2022-11-20T07:01:00.198Z,3.65
2022-11-20T07:03:27.094Z,3.73
2022-11-20T07:05:59.139Z,3.86
2022-11-20T07:08:25.818Z,3.87
2022-11-20T07:10:52.623Z,3.95
2022-11-20T07:13:19.111Z,3.77
2022-11-20T07:15:45.614Z,3.75
2022-11-20T07:18:12.120Z,3.84
2022-11-20T07:20:38.615Z,3.68
2022-11-20T07:23:04.965Z,3.78
2022-11-20T07:25:31.616Z,3.68
2022-11-20T07:27:59.565Z,3.82
2022-11-20T07:30:28.987Z,3.69
2022-11-20T07:32:56.640Z,3.67
2022-11-20T07:35:24.524Z,3.70
2022-11-20T07:37:51.275Z,3.94
2022-11-20T07:40:18.509Z,3.92
2022-11-20T07:42:52.284Z,3.71
2022-11-20T07:45:20.122Z,3.69
2022-11-20T07:47:46.769Z,3.68
2022-11-20T07:50:14.506Z,3.70
2022-11-20T07:52:41.439Z,3.73
2022-11-20T07:55:09.357Z,3.69
2022-11-20T07:57:35.773Z,3.52
2022-11-20T08:00:02.591Z,4.10
2022-11-20T08:02:40.258Z,3.85
2022-11-20T08:05:07.656Z,3.76
2022-11-20T08:07:42.183Z,4.10
2022-11-20T08:10:11.003Z,4.07
2022-11-20T08:13:14.165Z,4.21
2022-11-20T08:15:41.023Z,4.08
2022-11-20T08:21:02.714Z,3.90
2022-11-20T08:23:29.166Z,4.11
2022-11-20T08:25:55.519Z,4.38
2022-11-20T08:28:22.539Z,4.53
2022-11-20T08:30:51.138Z,4.59
2022-11-20T08:33:18.566Z,4.59
2022-11-20T08:35:45.192Z,4.78
2022-11-20T08:38:11.674Z,4.53
2022-11-20T08:40:38.099Z,4.67
2022-11-20T08:43:05.203Z,4.74
2022-11-20T08:45:34.493Z,4.29
2022-11-20T08:48:04.320Z,4.21
2022-11-20T08:50:32.988Z,4.45
2022-11-20T08:53:06.332Z,4.45
2022-11-20T08:55:34.135Z,4.62
2022-11-20T08:58:04.687Z,4.34
2022-11-20T09:00:31.169Z,4.27
2022-11-20T09:02:59.416Z,4.51
2022-11-20T09:05:25.915Z,4.30
2022-11-20T09:07:52.349Z,4.41
2022-11-20T09:10:25.816Z,4.42
2022-11-20T09:12:53.263Z,4.57
2022-11-20T09:15:20.535Z,4.61
2022-11-20T09:17:58.990Z,4.58
2022-11-20T09:20:26.230Z,4.47
2022-11-20T09:22:52.832Z,4.81
2022-11-20T09:25:19.331Z,4.87
2022-11-20T09:27:47.058Z,4.64
2022-11-20T09:30:17.099Z,4.74
2022-11-20T09:32:44.048Z,4.74
2022-11-20T09:35:11.331Z,4.84
2022-11-20T09:37:37.898Z,4.92
2022-11-20T09:40:04.523Z,4.97
2022-11-20T09:42:42.259Z,5.03
2022-11-20T09:45:39.350Z,5.05
2022-11-20T09:48:27.916Z,4.97
2022-11-20T09:51:15.888Z,5.08
2022-11-20T09:54:12.993Z,5.02
2022-11-20T09:56:45.894Z,4.89
2022-11-20T09:59:27.223Z,4.94
2022-11-20T10:01:56.468Z,4.90
2022-11-20T10:04:23.460Z,4.99
2022-11-20T10:07:30.769Z,5.19
2022-11-20T10:09:55.825Z,5.07
2022-11-20T10:12:59.658Z,5.10
2022-11-20T10:15:53.566Z,5.01
2022-11-20T10:18:46.833Z,5.07
2022-11-20T10:21:34.489Z,5.04
2022-11-20T10:24:25.703Z,5.03
2022-11-20T10:26:58.437Z,5.11
2022-11-20T10:29:34.971Z,5.02
2022-11-20T10:32:05.454Z,5.03
2022-11-20T10:34:56.132Z,5.36
2022-11-20T10:37:27.826Z,5.02
2022-11-20T10:40:26.759Z,5.26
2022-11-20T10:43:17.007Z,5.27
2022-11-20T10:45:54.306Z,5.17
2022-11-20T10:48:28.282Z,5.21
2022-11-20T10:51:00.862Z,5.25
2022-11-20T10:54:05.096Z,5.29
2022-11-20T10:56:50.096Z,5.40
2022-11-20T10:59:46.340Z,5.16
2022-11-20T11:02:18.498Z,5.04
2022-11-20T11:04:47.823Z,5.39
2022-11-20T11:07:23.581Z,5.16
2022-11-20T11:09:58.967Z,5.01
2022-11-20T11:12:28.250Z,5.20
2022-11-20T11:14:57.361Z,5.02
2022-11-20T11:33:26.455Z,4.63
2022-11-20T11:35:58.334Z,4.78
2022-11-20T11:38:43.900Z,4.85
2022-11-20T11:41:21.109Z,4.97
2022-11-20T11:44:15.910Z,5.05
2022-11-20T11:46:53.875Z,5.04
2022-11-20T11:49:21.393Z,4.95
2022-11-20T11:52:15.912Z,5.02
2022-11-20T11:54:51.430Z,5.23
2022-11-20T11:57:37.787Z,5.44
2022-11-20T12:00:11.541Z,5.34
2022-11-20T12:02:47.416Z,5.00
2022-11-20T12:05:25.116Z,4.91
2022-11-20T12:08:33.537Z,5.46
2022-11-20T12:11:24.105Z,5.37
2022-11-20T12:14:10.479Z,5.07
2022-11-20T12:16:39.060Z,4.83
2022-11-20T12:19:12.251Z,5.29
2022-11-20T12:22:05.162Z,5.25
2022-11-20T12:24:50.697Z,5.48
2022-11-20T12:27:38.740Z,5.39
2022-11-20T12:30:25.780Z,5.52
2022-11-20T12:33:17.001Z,5.48
2022-11-20T12:36:01.530Z,5.38
2022-11-20T12:38:38.741Z,5.52
2022-11-20T12:41:43.311Z,5.50
2022-11-20T12:45:07.762Z,5.45
2022-11-20T12:47:44.158Z,5.38
2022-11-20T12:50:13.375Z,5.27
2022-11-20T12:52:57.893Z,5.33
2022-11-20T12:55:28.858Z,5.29
2022-11-20T12:58:11.701Z,5.29
2022-11-20T13:00:47.339Z,5.21
2022-11-20T13:03:38.009Z,5.33
2022-11-20T13:06:04.534Z,5.20
2022-11-20T13:08:34.545Z,5.21
2022-11-20T13:11:38.445Z,5.30
2022-11-20T13:14:26.764Z,5.48
2022-11-20T13:17:06.377Z,5.39
2022-11-20T13:19:33.564Z,5.42
2022-11-20T13:22:00.120Z,5.69
2022-11-20T13:24:31.092Z,5.45
2022-11-20T13:27:21.559Z,5.52
2022-11-20T13:30:14.387Z,5.34
2022-11-20T13:32:50.760Z,5.24
2022-11-20T13:35:28.003Z,5.62
2022-11-20T13:38:20.717Z,5.66
2022-11-20T13:40:57.111Z,5.56
2022-11-20T13:43:29.679Z,5.52
2022-11-20T13:46:06.158Z,5.54
2022-11-20T13:48:41.796Z,5.64
2022-11-20T13:51:36.418Z,5.40
2022-11-20T13:54:13.395Z,5.53
2022-11-20T13:56:49.693Z,5.49
2022-11-20T13:59:46.062Z,5.24
2022-11-20T14:02:17.740Z,5.48
2022-11-20T14:04:51.294Z,5.47
2022-11-20T14:07:21.588Z,5.65
2022-11-20T14:09:58.221Z,5.60
2022-11-20T14:12:33.309Z,5.56
2022-11-20T14:15:00.600Z,5.66
2022-11-20T14:17:29.807Z,5.53
2022-11-20T14:20:00.755Z,5.44
2022-11-20T14:22:28.400Z,5.47
2022-11-20T14:25:31.982Z,5.55
2022-11-20T14:28:00.545Z,5.37
2022-11-20T14:30:51.237Z,5.83
2022-11-20T14:33:18.363Z,5.64
2022-11-20T14:35:54.439Z,5.50
2022-11-20T14:38:26.104Z,5.74
2022-11-20T14:40:53.118Z,5.85
2022-11-20T14:43:24.553Z,5.52
2022-11-20T14:46:04.330Z,5.59
2022-11-20T14:48:35.183Z,5.44
2022-11-20T14:51:02.668Z,5.47
2022-11-20T14:53:29.264Z,5.54
2022-11-20T14:55:59.199Z,5.43
2022-11-20T14:58:29.787Z,5.45
2022-11-20T15:01:01.993Z,5.48
2022-11-20T15:03:41.900Z,5.89
2022-11-20T15:06:13.652Z,5.49
2022-11-20T15:08:51.946Z,5.46
2022-11-20T15:11:21.789Z,5.40
2022-11-20T15:13:48.300Z,5.24
2022-11-20T15:16:19.742Z,5.20
2022-11-20T15:18:46.611Z,5.17
2022-11-20T15:21:18.254Z,5.13
2022-11-20T15:23:45.525Z,5.17
2022-11-20T15:26:19.694Z,5.17
2022-11-20T15:28:48.624Z,5.14
2022-11-20T15:31:18.544Z,5.08
2022-11-20T15:33:45.539Z,4.97
2022-11-20T15:36:12.055Z,5.14
2022-11-20T15:38:38.536Z,5.11
2022-11-20T15:41:06.251Z,5.02
2022-11-20T15:43:32.776Z,4.96
2022-11-20T15:46:13.788Z,4.89
2022-11-20T15:48:47.391Z,4.80
2022-11-20T15:51:26.908Z,4.64
2022-11-20T15:53:53.584Z,4.48
2022-11-20T15:56:20.161Z,4.33
2022-11-20T15:58:46.720Z,4.21
2022-11-20T16:01:16.406Z,4.17
2022-11-20T16:03:43.251Z,4.05
2022-11-20T16:06:09.913Z,3.97
2022-11-20T16:08:36.724Z,3.92
2022-11-20T16:11:03.638Z,3.98
2022-11-20T16:13:51.329Z,4.02
2022-11-20T16:16:24.558Z,4.11
2022-11-20T16:18:51.314Z,4.11
2022-11-20T16:21:17.904Z,4.19
2022-11-20T16:23:44.541Z,4.06
2022-11-20T16:26:16.711Z,4.12
2022-11-20T16:28:43.577Z,4.15
2022-11-20T16:31:10.900Z,4.04
2022-11-20T16:33:37.605Z,4.10
2022-11-20T16:36:15.326Z,4.01
2022-11-20T16:38:42.215Z,3.92
2022-11-20T16:41:15.531Z,3.85
2022-11-20T16:43:48.790Z,3.74
2022-11-20T16:46:20.559Z,3.79
2022-11-20T16:48:58.554Z,3.72
2022-11-20T16:51:26.664Z,3.63
2022-11-20T16:53:55.968Z,3.61
2022-11-20T16:56:24.892Z,3.65
2022-11-20T16:58:52.188Z,3.68
2022-11-20T17:01:22.282Z,3.65
2022-11-20T17:03:59.308Z,3.59
2022-11-20T17:06:30.341Z,3.58
2022-11-20T17:08:57.759Z,3.54
2022-11-20T17:11:25.502Z,3.63
2022-11-20T17:13:52.823Z,3.72
2022-11-20T17:16:22.071Z,3.77
2022-11-20T17:18:52.397Z,3.71
2022-11-20T17:21:19.406Z,3.72
2022-11-20T17:23:46.882Z,3.70
2022-11-20T17:26:17.893Z,3.68
2022-11-20T17:28:46.194Z,3.66
2022-11-20T17:31:15.353Z,3.72
2022-11-20T17:33:44.104Z,3.75
2022-11-20T17:36:13.320Z,3.80
2022-11-20T17:38:40.286Z,3.79
2022-11-20T17:41:09.934Z,3.74
2022-11-20T17:43:37.396Z,3.73
2022-11-20T17:46:08.641Z,3.69
2022-11-20T17:48:35.885Z,3.74
2022-11-20T17:51:04.603Z,3.74
2022-11-20T17:53:36.738Z,3.82
2022-11-20T17:56:23.210Z,3.80
2022-11-20T17:58:49.802Z,3.87
2022-11-20T18:01:16.751Z,3.95
2022-11-20T18:03:43.601Z,3.92
2022-11-20T18:06:21.441Z,3.96
2022-11-20T18:08:48.942Z,3.90
2022-11-20T18:11:21.137Z,3.81
2022-11-20T18:14:09.501Z,3.91
2022-11-20T18:16:42.781Z,3.79
2022-11-20T18:19:10.669Z,3.58
2022-11-20T18:21:37.565Z,3.66
2022-11-20T18:24:04.462Z,3.58
2022-11-20T18:26:30.958Z,3.44
2022-11-20T18:29:01.108Z,3.40
2022-11-20T18:31:31.183Z,3.21
2022-11-20T18:33:57.735Z,3.11
2022-11-20T18:36:29.743Z,3.21
2022-11-20T18:38:58.489Z,3.16
2022-11-20T18:41:45.335Z,3.16
2022-11-20T18:44:36.382Z,3.17
2022-11-20T18:47:08.340Z,3.15
2022-11-20T18:49:40.670Z,3.08
2022-11-20T18:52:07.400Z,3.03
2022-11-20T18:54:36.837Z,3.05
2022-11-20T18:57:04.760Z,3.00
2022-11-20T18:59:32.144Z,2.87
2022-11-20T19:01:58.832Z,3.04
2022-11-20T19:04:25.715Z,3.03
2022-11-20T19:06:56.068Z,2.99
2022-11-20T19:09:24.157Z,3.00
2022-11-20T19:11:51.456Z,2.94
2022-11-20T19:14:18.168Z,2.90
2022-11-20T19:16:44.782Z,2.84
2022-11-20T19:19:11.507Z,2.80
2022-11-20T19:21:38.117Z,2.71
2022-11-20T19:24:05.400Z,2.85
2022-11-20T19:26:34.276Z,2.75
2022-11-20T19:29:00.855Z,2.90
2022-11-20T19:31:28.075Z,2.88
2022-11-20T19:33:55.811Z,2.88
2022-11-20T19:36:25.404Z,2.97
2022-11-20T19:38:53.016Z,2.95
2022-11-20T19:41:28.768Z,2.93
2022-11-20T19:44:09.883Z,2.93
2022-11-20T19:46:38.224Z,2.86
2022-11-20T19:49:07.424Z,2.88
2022-11-20T19:51:35.108Z,2.86
2022-11-20T19:54:03.269Z,2.84
2022-11-20T19:56:31.592Z,2.77
2022-11-20T19:58:58.619Z,2.85
2022-11-20T20:01:28.504Z,2.75
2022-11-20T20:03:57.445Z,2.84
2022-11-20T20:06:26.367Z,2.88
2022-11-20T20:09:03.858Z,2.77
2022-11-20T20:11:31.566Z,2.89
2022-11-20T20:14:01.559Z,2.84
2022-11-20T20:16:28.802Z,2.97
2022-11-20T20:19:01.348Z,2.99
2022-11-20T20:21:31.042Z,3.00
2022-11-20T20:23:59.042Z,3.01
2022-11-20T20:26:27.681Z,3.06
2022-11-20T20:28:54.606Z,3.05
2022-11-20T20:31:23.862Z,3.10
2022-11-20T20:33:50.632Z,3.13
2022-11-20T20:36:18.638Z,3.12
2022-11-20T20:38:46.477Z,3.12
2022-11-20T20:41:14.435Z,3.16
2022-11-20T20:43:59.634Z,3.06
2022-11-20T20:46:26.243Z,3.10
2022-11-20T20:48:54.929Z,3.16
2022-11-20T20:51:22.660Z,3.13
2022-11-20T20:53:49.972Z,3.18
2022-11-20T20:56:17.737Z,3.11
2022-11-20T20:58:44.713Z,2.98
2022-11-20T21:01:14.407Z,3.09
2022-11-20T21:03:41.691Z,3.11
2022-11-20T21:06:10.464Z,3.16
2022-11-20T21:08:40.401Z,3.17
2022-11-20T21:11:13.517Z,3.26
2022-11-20T21:13:42.877Z,3.34
2022-11-20T21:16:10.301Z,3.40
2022-11-20T21:18:36.973Z,3.48
2022-11-20T21:21:27.268Z,3.53
2022-11-20T21:23:53.910Z,3.43
2022-11-20T21:26:21.436Z,3.32
2022-11-20T21:28:48.195Z,3.37
2022-11-20T21:31:17.325Z,3.35
2022-11-20T21:33:48.412Z,3.23
2022-11-20T21:36:26.284Z,3.30
2022-11-20T21:38:56.948Z,2.77
2022-11-20T21:41:24.853Z,3.19
2022-11-20T21:44:23.519Z,3.20
2022-11-20T21:46:41.214Z,3.34
2022-11-20T21:49:08.068Z,3.31
2022-11-20T21:51:34.924Z,3.20
2022-11-20T21:54:02.389Z,3.35
2022-11-20T21:56:28.889Z,3.38
2022-11-20T21:58:55.372Z,3.42
2022-11-20T22:01:24.582Z,3.27
2022-11-20T22:03:57.127Z,3.15
2022-11-20T22:06:25.914Z,3.24
2022-11-20T22:08:52.648Z,3.34
2022-11-20T22:11:20.891Z,3.12
2022-11-20T22:14:06.617Z,3.33
2022-11-20T22:16:37.224Z,3.13
2022-11-20T22:19:05.545Z,3.25
2022-11-20T22:21:32.639Z,3.34
2022-11-20T22:23:59.319Z,3.18
2022-11-20T22:26:28.857Z,3.20
2022-11-20T22:28:57.605Z,3.33
2022-11-20T22:31:26.347Z,3.24
2022-11-20T22:33:53.273Z,3.36
2022-11-20T22:36:24.349Z,3.50
2022-11-20T22:38:51.485Z,3.53
2022-11-20T22:41:27.116Z,3.47
2022-11-20T22:43:56.364Z,3.34
2022-11-20T22:46:23.698Z,3.58
2022-11-20T22:48:58.656Z,3.28
2022-11-20T22:51:31.036Z,3.29
2022-11-20T22:53:57.646Z,3.81
2022-11-20T22:56:24.788Z,3.60
2022-11-20T22:58:52.844Z,3.61
2022-11-20T23:18:02.365Z,3.24
2022-11-20T23:20:28.832Z,3.52
2022-11-20T23:22:55.265Z,3.68
2022-11-20T23:25:21.936Z,3.53
2022-11-20T23:27:48.438Z,3.58
2022-11-20T23:30:14.989Z,3.68
2022-11-20T23:32:41.486Z,3.86
2022-11-20T23:35:08.063Z,4.00
2022-11-20T23:37:34.559Z,3.66
2022-11-20T23:40:00.954Z,3.67
2022-11-20T23:42:27.493Z,3.78
2022-11-20T23:44:53.980Z,3.80
2022-11-20T23:47:20.372Z,3.94
2022-11-20T23:49:46.953Z,3.91
2022-11-20T23:52:13.483Z,3.96
2022-11-20T23:54:40.019Z,3.87
2022-11-20T23:57:06.496Z,3.78
2022-11-20T23:59:32.893Z,3.76
